Time;durP1;ratioP1;P1;durP2;ratioP2;P2;SDS_P1;SDS_P2;PMS_P1;PMS_P2;Temp;Humidity;BMP_temperature;BMP_pressure;BME280_temperature;BME280_humidity;BME280_pressure;Samples;Min_cycle;Max_cycle;Signal;HPM_P1;HPM_P2
2023/12/16 00:00:51;;;;;;;9.82;4.47;;;;;;;;;;4838922;29;20500;-81
2023/12/16 00:03:17;;;;;;;12.30;3.70;;;;;;;;;;4840555;29;20050;-82
2023/12/16 00:05:43;;;;;;;10.45;3.72;;;;;;;;;;4838984;29;20160;-82
2023/12/16 00:08:09;;;;;;;10.38;4.05;;;;;;;;;;4839068;29;20042;-81
2023/12/16 00:10:35;;;;;;;9.02;3.22;;;;;;;;;;4839416;29;20524;-81
2023/12/16 00:13:01;;;;;;;9.18;3.65;;;;;;;;;;4838689;29;20370;-82
2023/12/16 00:15:27;;;;;;;6.78;3.20;;;;;;;;;;4827367;29;20061;-82
2023/12/16 00:17:53;;;;;;;7.40;3.05;;;;;;;;;;4827231;29;20129;-81
2023/12/16 00:20:19;;;;;;;11.60;3.25;;;;;;;;;;4839518;29;20104;-81
2023/12/16 00:22:45;;;;;;;12.75;3.85;;;;;;;;;;4838711;29;20129;-82
2023/12/16 00:25:12;;;;;;;10.05;3.70;;;;;;;;;;4838334;29;20058;-81
2023/12/16 00:27:38;;;;;;;8.70;3.20;;;;;;;;;;4838074;29;20125;-82
2023/12/16 00:30:05;;;;;;;10.07;3.20;;;;;;;;;;4839881;29;20133;-81
2023/12/16 00:32:31;;;;;;;9.32;3.00;;;;;;;;;;4823001;29;20046;-81
2023/12/16 00:34:57;;;;;;;8.85;3.60;;;;;;;;;;4838487;29;20065;-81
2023/12/16 00:37:23;;;;;;;9.90;3.33;;;;;;;;;;4838174;29;20062;-81
2023/12/16 00:39:49;;;;;;;12.30;3.30;;;;;;;;;;4839298;29;20073;-82
2023/12/16 00:42:15;;;;;;;9.95;3.33;;;;;;;;;;4836607;29;20436;-82
2023/12/16 00:44:41;;;;;;;8.68;2.90;;;;;;;;;;4839111;29;20042;-82
2023/12/16 00:47:07;;;;;;;9.13;3.05;;;;;;;;;;4833679;29;20042;-82
2023/12/16 00:49:33;;;;;;;9.85;3.30;;;;;;;;;;4838803;29;20697;-81
2023/12/16 00:51:59;;;;;;;9.05;2.95;;;;;;;;;;4841716;29;20057;-81
2023/12/16 00:54:26;;;;;;;16.27;3.15;;;;;;;;;;4838779;29;20416;-81
2023/12/16 00:56:53;;;;;;;10.95;3.00;;;;;;;;;;4838007;29;20060;-81
2023/12/16 00:59:21;;;;;;;9.65;3.00;;;;;;;;;;4835158;29;20133;-82
2023/12/16 01:01:47;;;;;;;7.05;3.00;;;;;;;;;;4828528;29;20056;-82
2023/12/16 01:04:13;;;;;;;6.32;2.97;;;;;;;;;;4837952;29;20049;-82
2023/12/16 01:06:39;;;;;;;10.45;3.30;;;;;;;;;;4836324;29;20050;-81
2023/12/16 01:09:05;;;;;;;11.95;3.35;;;;;;;;;;4837322;29;20111;-82
2023/12/16 01:11:31;;;;;;;6.82;3.05;;;;;;;;;;4837693;29;20060;-82
2023/12/16 01:13:57;;;;;;;11.18;3.30;;;;;;;;;;4837248;29;20054;-82
2023/12/16 01:16:23;;;;;;;14.13;3.38;;;;;;;;;;4835011;29;20057;-82
2023/12/16 01:18:49;;;;;;;7.28;2.90;;;;;;;;;;4827936;29;20046;-81
2023/12/16 01:21:17;;;;;;;8.32;3.25;;;;;;;;;;4835137;29;20125;-82
2023/12/16 01:23:43;;;;;;;8.40;2.75;;;;;;;;;;4838153;29;20053;-82
2023/12/16 01:26:09;;;;;;;7.00;2.67;;;;;;;;;;4837876;29;20049;-81
2023/12/16 01:28:35;;;;;;;10.43;3.17;;;;;;;;;;4837061;29;20049;-81
2023/12/16 01:31:01;;;;;;;8.05;3.17;;;;;;;;;;4837525;29;20114;-82
2023/12/16 01:33:27;;;;;;;10.30;2.60;;;;;;;;;;4836719;29;20203;-82
2023/12/16 01:35:53;;;;;;;6.95;3.20;;;;;;;;;;4837283;29;20065;-82
2023/12/16 01:38:19;;;;;;;6.65;3.17;;;;;;;;;;4836459;29;20054;-81
2023/12/16 01:40:45;;;;;;;8.75;2.78;;;;;;;;;;4836366;29;20056;-81
2023/12/16 01:43:11;;;;;;;7.90;2.88;;;;;;;;;;4825984;29;20033;-81
2023/12/16 01:45:37;;;;;;;13.95;3.00;;;;;;;;;;4837269;29;20060;-82
2023/12/16 01:48:04;;;;;;;7.97;2.38;;;;;;;;;;4837060;29;20469;-82
2023/12/16 01:50:30;;;;;;;6.68;2.80;;;;;;;;;;4823824;29;20068;-82
2023/12/16 01:52:57;;;;;;;9.75;3.85;;;;;;;;;;4833278;29;20050;-82
2023/12/16 01:55:23;;;;;;;10.63;3.03;;;;;;;;;;4837315;29;20056;-82
2023/12/16 01:57:49;;;;;;;8.05;2.97;;;;;;;;;;4834164;29;20485;-81
2023/12/16 02:00:15;;;;;;;10.20;3.13;;;;;;;;;;4818746;29;20050;-81
2023/12/16 02:02:41;;;;;;;9.15;2.72;;;;;;;;;;4829455;29;20057;-81
2023/12/16 02:05:07;;;;;;;10.80;3.03;;;;;;;;;;4829230;29;20054;-82
2023/12/16 02:07:33;;;;;;;8.95;3.10;;;;;;;;;;4836245;29;20598;-82
2023/12/16 02:10:01;;;;;;;6.85;3.00;;;;;;;;;;4836875;29;20125;-82
2023/12/16 02:12:27;;;;;;;9.13;2.97;;;;;;;;;;4832935;29;20059;-82
2023/12/16 02:14:53;;;;;;;8.23;3.40;;;;;;;;;;4820088;29;20058;-82
2023/12/16 02:17:19;;;;;;;9.70;3.30;;;;;;;;;;4822395;29;20053;-82
2023/12/16 02:19:46;;;;;;;9.93;3.90;;;;;;;;;;4825999;29;20054;-82
2023/12/16 02:22:12;;;;;;;11.23;3.28;;;;;;;;;;4823803;29;20058;-82
2023/12/16 02:24:41;;;;;;;11.30;3.22;;;;;;;;;;4837151;29;20056;-82
2023/12/16 02:27:07;;;;;;;9.27;3.22;;;;;;;;;;4837128;29;20118;-82
2023/12/16 02:29:33;;;;;;;9.95;3.15;;;;;;;;;;4838090;29;20053;-81
2023/12/16 02:31:59;;;;;;;7.95;3.35;;;;;;;;;;4837424;29;20046;-81
2023/12/16 02:34:26;;;;;;;12.88;3.22;;;;;;;;;;4837045;29;20093;-81
2023/12/16 02:36:52;;;;;;;11.20;3.53;;;;;;;;;;4836041;29;20129;-82
2023/12/16 02:39:18;;;;;;;9.50;3.58;;;;;;;;;;4836004;29;20484;-82
2023/12/16 02:41:44;;;;;;;8.52;3.20;;;;;;;;;;4837854;29;20145;-82
2023/12/16 02:44:10;;;;;;;15.60;3.13;;;;;;;;;;4835966;29;20077;-82
2023/12/16 02:46:35;;;;;;;9.00;3.05;;;;;;;;;;4836434;29;20058;-82
2023/12/16 02:49:01;;;;;;;9.27;3.20;;;;;;;;;;4825069;29;20055;-82
2023/12/16 02:51:29;;;;;;;10.85;3.30;;;;;;;;;;4819780;29;20046;-82
2023/12/16 02:53:55;;;;;;;10.38;3.30;;;;;;;;;;4829602;29;20058;-82
2023/12/16 02:56:21;;;;;;;7.38;2.95;;;;;;;;;;4835224;29;20875;-82
2023/12/16 02:58:48;;;;;;;11.27;2.92;;;;;;;;;;4827865;29;20050;-82
2023/12/16 03:01:14;;;;;;;8.75;3.17;;;;;;;;;;4819733;29;20168;-82
2023/12/16 03:03:40;;;;;;;11.95;2.92;;;;;;;;;;4819134;29;20046;-82
2023/12/16 03:06:07;;;;;;;11.63;2.92;;;;;;;;;;4835621;29;20069;-82
2023/12/16 03:08:33;;;;;;;8.60;2.85;;;;;;;;;;4849948;29;20061;-82
2023/12/16 03:11:01;;;;;;;9.63;3.00;;;;;;;;;;4836512;29;20042;-82
2023/12/16 03:13:27;;;;;;;10.02;3.30;;;;;;;;;;4835000;29;20099;-81
2023/12/16 03:15:53;;;;;;;8.68;2.70;;;;;;;;;;4850218;29;20106;-82
2023/12/16 03:18:19;;;;;;;8.32;2.70;;;;;;;;;;4823295;29;20128;-82
2023/12/16 03:20:45;;;;;;;10.80;4.05;;;;;;;;;;4836999;29;20054;-82
2023/12/16 03:23:11;;;;;;;14.23;2.95;;;;;;;;;;4829589;29;20088;-81
2023/12/16 03:25:43;;;;;;;10.27;3.03;;;;;;;;;;4837008;29;20091;-82
2023/12/16 03:28:09;;;;;;;13.67;3.23;;;;;;;;;;4836367;29;20072;-82
2023/12/16 03:30:35;;;;;;;10.45;3.40;;;;;;;;;;4837555;29;20298;-82
2023/12/16 03:33:01;;;;;;;9.15;2.67;;;;;;;;;;4833315;29;20468;-82
2023/12/16 03:35:27;;;;;;;10.10;3.22;;;;;;;;;;4818189;29;20065;-82
2023/12/16 03:37:54;;;;;;;13.07;3.10;;;;;;;;;;4828330;29;20069;-82
2023/12/16 03:40:21;;;;;;;6.03;2.85;;;;;;;;;;4836299;29;20476;-82
2023/12/16 03:42:47;;;;;;;14.93;3.30;;;;;;;;;;4833645;29;20085;-82
2023/12/16 03:45:13;;;;;;;6.07;2.97;;;;;;;;;;4820475;29;20458;-81
2023/12/16 03:47:39;;;;;;;14.13;3.20;;;;;;;;;;4833359;29;20061;-81
2023/12/16 03:50:05;;;;;;;8.38;2.75;;;;;;;;;;4823541;29;20081;-82
2023/12/16 03:52:31;;;;;;;7.05;3.20;;;;;;;;;;4834862;29;20717;-82
2023/12/16 03:54:57;;;;;;;7.25;2.85;;;;;;;;;;4850837;29;20168;-82
2023/12/16 03:57:23;;;;;;;10.88;3.70;;;;;;;;;;4834725;29;20050;-82
2023/12/16 03:59:49;;;;;;;14.57;3.72;;;;;;;;;;4820994;29;20110;-82
2023/12/16 04:02:15;;;;;;;9.13;2.85;;;;;;;;;;4836515;29;20069;-82
2023/12/16 04:04:42;;;;;;;11.20;2.95;;;;;;;;;;4836619;29;20062;-82
2023/12/16 04:07:09;;;;;;;11.98;3.88;;;;;;;;;;4834685;29;20042;-82
2023/12/16 04:09:35;;;;;;;10.10;3.08;;;;;;;;;;4818542;29;20134;-82
2023/12/16 04:12:02;;;;;;;13.70;3.25;;;;;;;;;;4821416;29;20046;-82
2023/12/16 04:14:28;;;;;;;9.85;2.80;;;;;;;;;;4836782;29;20133;-82
2023/12/16 04:16:54;;;;;;;12.25;3.17;;;;;;;;;;4834689;29;20166;-82
2023/12/16 04:19:20;;;;;;;10.40;3.00;;;;;;;;;;4826550;29;20474;-82
2023/12/16 04:21:46;;;;;;;13.35;3.38;;;;;;;;;;4839375;29;20099;-81
2023/12/16 04:24:11;;;;;;;16.23;3.47;;;;;;;;;;4836829;29;20049;-82
2023/12/16 04:26:38;;;;;;;9.88;2.80;;;;;;;;;;4839457;29;20056;-82
2023/12/16 04:29:05;;;;;;;13.20;2.72;;;;;;;;;;4820853;29;20062;-82
2023/12/16 04:31:31;;;;;;;14.63;3.22;;;;;;;;;;4821727;29;20065;-82
2023/12/16 04:33:57;;;;;;;11.98;3.67;;;;;;;;;;4820852;29;20055;-82
2023/12/16 04:36:24;;;;;;;8.35;3.30;;;;;;;;;;4822440;29;20123;-82
2023/12/16 04:38:50;;;;;;;12.35;3.30;;;;;;;;;;4838447;29;20038;-82
2023/12/16 04:41:16;;;;;;;8.05;3.03;;;;;;;;;;4839455;29;20614;-82
2023/12/16 04:43:42;;;;;;;12.98;3.47;;;;;;;;;;4826668;29;20051;-82
2023/12/16 04:46:08;;;;;;;9.55;3.33;;;;;;;;;;4830452;29;20050;-82
2023/12/16 04:48:34;;;;;;;10.57;2.97;;;;;;;;;;4839250;29;20505;-82
2023/12/16 04:51:06;;;;;;;10.38;3.50;;;;;;;;;;4837693;29;20141;-82
2023/12/16 04:53:32;;;;;;;;;;;;;;;;;;4831184;29;20053;-82
2023/12/16 04:55:58;;;;;;;12.93;3.20;;;;;;;;;;4838510;29;19928;-82
2023/12/16 04:58:25;;;;;;;11.35;3.13;;;;;;;;;;4837222;29;20531;-82
2023/12/16 05:00:51;;;;;;;9.98;3.20;;;;;;;;;;4838929;29;20061;-83
2023/12/16 05:03:17;;;;;;;10.43;3.53;;;;;;;;;;4825165;29;20047;-82
2023/12/16 05:05:43;;;;;;;10.40;3.15;;;;;;;;;;4820931;29;20506;-82
2023/12/16 05:08:10;;;;;;;15.43;4.20;;;;;;;;;;4816671;29;20049;-82
2023/12/16 05:10:36;;;;;;;13.65;4.07;;;;;;;;;;4838717;29;20066;-82
2023/12/16 05:13:01;;;;;;;12.27;3.35;;;;;;;;;;4837301;29;20050;-82
2023/12/16 05:15:27;;;;;;;12.95;4.15;;;;;;;;;;4838346;29;20129;-82
2023/12/16 05:17:54;;;;;;;14.52;3.50;;;;;;;;;;4836802;29;20431;-82
2023/12/16 05:20:19;;;;;;;11.93;3.70;;;;;;;;;;4838892;29;20125;-82
2023/12/16 05:22:45;;;;;;;12.80;3.85;;;;;;;;;;4838231;29;20468;-82
2023/12/16 05:25:11;;;;;;;14.55;3.97;;;;;;;;;;4837214;29;20054;-82
2023/12/16 05:27:38;;;;;;;12.88;3.47;;;;;;;;;;4834017;29;20121;-82
2023/12/16 05:30:04;;;;;;;18.27;4.03;;;;;;;;;;4838142;29;20060;-82
2023/12/16 05:32:30;;;;;;;15.52;3.92;;;;;;;;;;4837815;29;20050;-82
2023/12/16 05:34:57;;;;;;;12.95;3.45;;;;;;;;;;4820328;29;20066;-82
2023/12/16 05:37:23;;;;;;;14.52;3.92;;;;;;;;;;4834088;29;20140;-82
2023/12/16 05:39:49;;;;;;;12.77;4.18;;;;;;;;;;4838442;29;20098;-82
2023/12/16 05:42:15;;;;;;;17.15;4.00;;;;;;;;;;4837948;29;20057;-82
2023/12/16 05:44:40;;;;;;;13.98;4.10;;;;;;;;;;4836567;29;20159;-82
2023/12/16 05:47:07;;;;;;;11.85;4.47;;;;;;;;;;4836390;29;20061;-83
2023/12/16 05:49:35;;;;;;;14.48;4.05;;;;;;;;;;4837053;29;20089;-82
2023/12/16 05:52:01;;;;;;;17.48;4.45;;;;;;;;;;4836656;29;20061;-82
2023/12/16 05:54:27;;;;;;;12.30;3.63;;;;;;;;;;4836828;29;20045;-82
2023/12/16 05:56:54;;;;;;;21.77;4.68;;;;;;;;;;4836140;29;20053;-82
2023/12/16 05:59:20;;;;;;;15.85;4.72;;;;;;;;;;4836103;29;20061;-82
2023/12/16 06:01:46;;;;;;;16.08;4.35;;;;;;;;;;4836154;29;20655;-82
2023/12/16 06:04:14;;;;;;;18.17;4.75;;;;;;;;;;4852227;29;20136;-82
2023/12/16 06:06:40;;;;;;;17.65;4.57;;;;;;;;;;4836533;29;20120;-81
2023/12/16 06:09:07;;;;;;;13.38;4.28;;;;;;;;;;4819733;29;20054;-81
2023/12/16 06:11:33;;;;;;;13.15;3.90;;;;;;;;;;4820745;29;20094;-81
2023/12/16 06:13:59;;;;;;;22.23;4.40;;;;;;;;;;4836715;29;20041;-81
2023/12/16 06:16:25;;;;;;;12.88;4.47;;;;;;;;;;4820472;29;20073;-81
2023/12/16 06:18:53;;;;;;;15.48;4.50;;;;;;;;;;4846615;29;20169;-81
2023/12/16 06:21:19;;;;;;;14.57;3.90;;;;;;;;;;4826589;29;20058;-81
2023/12/16 06:23:45;;;;;;;14.15;3.92;;;;;;;;;;4835931;29;20160;-81
2023/12/16 06:26:11;;;;;;;13.77;4.95;;;;;;;;;;4843908;29;20053;-82
2023/12/16 06:28:37;;;;;;;16.05;4.75;;;;;;;;;;4837127;29;20046;-81
2023/12/16 06:31:03;;;;;;;14.98;5.15;;;;;;;;;;4836236;29;20050;-81
2023/12/16 06:33:29;;;;;;;14.10;4.32;;;;;;;;;;4838859;29;20106;-82
2023/12/16 06:35:55;;;;;;;19.52;4.65;;;;;;;;;;4848600;29;20062;-81
2023/12/16 06:38:21;;;;;;;14.93;4.65;;;;;;;;;;4834788;29;20523;-81
2023/12/16 06:40:47;;;;;;;12.27;4.65;;;;;;;;;;4835752;29;20520;-81
2023/12/16 06:43:14;;;;;;;15.02;4.50;;;;;;;;;;4836850;29;20056;-81
2023/12/16 06:45:40;;;;;;;18.02;5.25;;;;;;;;;;4835719;29;20057;-81
2023/12/16 06:48:06;;;;;;;18.45;5.40;;;;;;;;;;4831642;29;20061;-80
2023/12/16 06:50:32;;;;;;;15.90;4.68;;;;;;;;;;4837756;29;20046;-80
2023/12/16 06:52:58;;;;;;;15.40;5.10;;;;;;;;;;4832183;29;20060;-80
2023/12/16 06:55:24;;;;;;;13.48;5.43;;;;;;;;;;4834557;29;20560;-81
2023/12/16 06:57:50;;;;;;;12.73;5.05;;;;;;;;;;4836384;29;20061;-80
2023/12/16 07:00:16;;;;;;;15.07;5.00;;;;;;;;;;4830265;29;20380;-80
2023/12/16 07:02:43;;;;;;;18.40;5.20;;;;;;;;;;4826307;29;20055;-80
2023/12/16 07:05:10;;;;;;;21.55;7.38;;;;;;;;;;4818475;29;20058;-80
2023/12/16 07:07:36;;;;;;;25.95;9.48;;;;;;;;;;4825951;29;20415;-80
2023/12/16 07:10:03;;;;;;;32.70;14.98;;;;;;;;;;4837486;29;20178;-80
2023/12/16 07:12:29;;;;;;;24.85;10.23;;;;;;;;;;4834571;29;20049;-81
2023/12/16 07:14:55;;;;;;;23.77;11.20;;;;;;;;;;4836321;29;20054;-81
2023/12/16 07:17:21;;;;;;;26.90;11.35;;;;;;;;;;4835226;29;20515;-80
2023/12/16 07:19:47;;;;;;;24.63;7.90;;;;;;;;;;4836326;29;20122;-80
2023/12/16 07:22:16;;;;;;;23.38;10.10;;;;;;;;;;4836103;29;20046;-81
2023/12/16 07:24:42;;;;;;;20.73;6.03;;;;;;;;;;4834419;29;20066;-81
2023/12/16 07:27:08;;;;;;;19.55;6.90;;;;;;;;;;4835377;29;20049;-80
2023/12/16 07:29:34;;;;;;;17.67;6.28;;;;;;;;;;4836414;29;20416;-81
2023/12/16 07:32:00;;;;;;;18.73;6.20;;;;;;;;;;4835234;29;20060;-80
2023/12/16 07:34:26;;;;;;;17.80;5.60;;;;;;;;;;4835503;29;20362;-81
2023/12/16 07:36:52;;;;;;;17.95;6.38;;;;;;;;;;4830134;29;20489;-81
2023/12/16 07:39:19;;;;;;;15.18;5.95;;;;;;;;;;4833537;29;20058;-81
2023/12/16 07:41:44;;;;;;;19.15;5.60;;;;;;;;;;4836297;29;20082;-82
2023/12/16 07:44:11;;;;;;;20.58;5.85;;;;;;;;;;4837605;29;20050;-82
2023/12/16 07:46:37;;;;;;;17.02;6.50;;;;;;;;;;4835191;29;20054;-82
2023/12/16 07:49:03;;;;;;;22.10;6.03;;;;;;;;;;4836848;29;20142;-82
2023/12/16 07:51:29;;;;;;;16.27;5.90;;;;;;;;;;4837446;29;20126;-83
2023/12/16 07:53:56;;;;;;;20.45;7.90;;;;;;;;;;4824182;29;20057;-83
2023/12/16 07:56:24;;;;;;;24.63;9.18;;;;;;;;;;4840946;29;20057;-82
2023/12/16 07:58:51;;;;;;;16.95;6.32;;;;;;;;;;4840137;29;20056;-82
2023/12/16 08:01:18;;;;;;;17.60;8.80;;;;;;;;;;4839764;29;20048;-82
2023/12/16 08:03:44;;;;;;;19.13;7.50;;;;;;;;;;4840692;29;20041;-82
2023/12/16 08:06:10;;;;;;;21.52;9.13;;;;;;;;;;4840659;29;20054;-82
2023/12/16 08:08:39;;;;;;;22.90;8.80;;;;;;;;;;4839982;29;20141;-82
2023/12/16 08:11:05;;;;;;;17.38;8.40;;;;;;;;;;4838178;29;20144;-81
2023/12/16 08:13:31;;;;;;;22.13;6.93;;;;;;;;;;4853814;29;20445;-81
2023/12/16 08:15:59;;;;;;;21.27;7.70;;;;;;;;;;4852853;29;20110;-81
2023/12/16 08:18:25;;;;;;;20.00;6.85;;;;;;;;;;4840027;29;20375;-81
2023/12/16 08:20:51;;;;;;;20.83;6.82;;;;;;;;;;4838685;29;20065;-81
2023/12/16 08:23:18;;;;;;;16.80;6.80;;;;;;;;;;4838272;29;20412;-81
2023/12/16 08:25:44;;;;;;;23.05;6.57;;;;;;;;;;4823260;29;20046;-81
2023/12/16 08:28:10;;;;;;;15.57;6.65;;;;;;;;;;4840096;29;20080;-81
2023/12/16 08:30:36;;;;;;;25.02;7.18;;;;;;;;;;4838521;29;20513;-81
2023/12/16 08:33:02;;;;;;;14.52;5.80;;;;;;;;;;4838702;29;20050;-82
2023/12/16 08:35:28;;;;;;;21.98;6.95;;;;;;;;;;4838350;29;20110;-83
2023/12/16 08:37:57;;;;;;;25.20;6.78;;;;;;;;;;4838209;29;20545;-82
2023/12/16 08:40:24;;;;;;;18.73;6.63;;;;;;;;;;4839233;29;20046;-83
2023/12/16 08:42:50;;;;;;;19.65;6.72;;;;;;;;;;4838299;29;20057;-81
2023/12/16 08:45:19;;;;;;;23.17;6.93;;;;;;;;;;4838697;29;20061;-82
2023/12/16 08:47:45;;;;;;;21.48;7.05;;;;;;;;;;4838664;29;20053;-85
2023/12/16 08:50:11;;;;;;;19.10;6.95;;;;;;;;;;4840123;29;20507;-81
2023/12/16 08:52:38;;;;;;;22.02;7.43;;;;;;;;;;4838452;29;20057;-82
2023/12/16 08:55:04;;;;;;;14.45;6.50;;;;;;;;;;4839450;29;20058;-81
2023/12/16 08:57:31;;;;;;;20.55;6.65;;;;;;;;;;4838509;29;20458;-82
2023/12/16 08:59:57;;;;;;;20.88;6.63;;;;;;;;;;4832704;29;20118;-80
2023/12/16 09:02:23;;;;;;;24.10;7.82;;;;;;;;;;4821263;29;20108;-80
2023/12/16 09:04:49;;;;;;;17.83;7.35;;;;;;;;;;4821194;29;20055;-80
2023/12/16 09:07:15;;;;;;;23.40;6.93;;;;;;;;;;4820698;29;20089;-79
2023/12/16 09:09:41;;;;;;;24.17;7.90;;;;;;;;;;4838657;29;20204;-80
2023/12/16 09:12:07;;;;;;;17.48;6.47;;;;;;;;;;4831539;29;20137;-81
2023/12/16 09:14:34;;;;;;;19.55;5.93;;;;;;;;;;4838980;29;20073;-80
2023/12/16 09:17:00;;;;;;;19.63;6.78;;;;;;;;;;4839579;29;20125;-82
2023/12/16 09:19:26;;;;;;;25.30;6.70;;;;;;;;;;4839467;29;20049;-82
2023/12/16 09:21:53;;;;;;;19.27;7.03;;;;;;;;;;4837696;29;20457;-81
2023/12/16 09:24:20;;;;;;;21.90;6.60;;;;;;;;;;4835359;29;20050;-82
2023/12/16 09:26:47;;;;;;;20.08;6.10;;;;;;;;;;4836146;29;20773;-81
2023/12/16 09:29:13;;;;;;;28.80;7.32;;;;;;;;;;4837333;29;20151;-81
2023/12/16 09:31:39;;;;;;;25.67;7.15;;;;;;;;;;4845797;29;20080;-81
2023/12/16 09:34:05;;;;;;;25.77;7.65;;;;;;;;;;4835870;29;20188;-81
2023/12/16 09:36:33;;;;;;;21.38;7.00;;;;;;;;;;4832827;29;20053;-82
2023/12/16 09:38:59;;;;;;;25.15;7.93;;;;;;;;;;4835118;29;20531;-83
2023/12/16 09:41:28;;;;;;;21.30;7.93;;;;;;;;;;4831654;29;20065;-82
2023/12/16 09:43:55;;;;;;;25.98;7.85;;;;;;;;;;4838022;29;20049;-82
2023/12/16 09:46:24;;;;;;;18.73;7.00;;;;;;;;;;4838592;29;20527;-82
2023/12/16 09:48:50;;;;;;;21.10;7.05;;;;;;;;;;4838671;29;20045;-82
2023/12/16 09:51:16;;;;;;;26.27;7.88;;;;;;;;;;4837874;29;20056;-82
2023/12/16 09:53:43;;;;;;;29.50;7.97;;;;;;;;;;4838695;29;20054;-82
2023/12/16 09:56:15;;;;;;;25.85;7.60;;;;;;;;;;4837517;29;20041;-82
2023/12/16 09:58:44;;;;;;;;;;;;;;;;;;4837191;29;20164;-83
2023/12/16 10:01:10;;;;;;;27.55;7.10;;;;;;;;;;4848683;29;20295;-82
2023/12/16 10:03:40;;;;;;;29.50;7.78;;;;;;;;;;4819377;29;20046;-80
2023/12/16 10:06:06;;;;;;;27.08;8.13;;;;;;;;;;4818805;29;20057;-80
2023/12/16 10:08:33;;;;;;;27.15;7.93;;;;;;;;;;4818958;29;20114;-80
2023/12/16 10:10:59;;;;;;;31.85;9.50;;;;;;;;;;4824092;29;20053;-81
2023/12/16 10:13:26;;;;;;;28.95;9.00;;;;;;;;;;4822331;29;20605;-80
2023/12/16 10:15:52;;;;;;;27.98;9.13;;;;;;;;;;4847331;29;20492;-81
2023/12/16 10:18:18;;;;;;;31.65;9.27;;;;;;;;;;4838072;29;20050;-81
2023/12/16 10:20:44;;;;;;;28.80;9.90;;;;;;;;;;4838205;29;20042;-80
2023/12/16 10:23:11;;;;;;;32.97;10.25;;;;;;;;;;4838071;29;20065;-80
2023/12/16 10:25:37;;;;;;;33.55;10.15;;;;;;;;;;4837078;29;20764;-80
2023/12/16 10:28:03;;;;;;;35.08;11.90;;;;;;;;;;4837273;29;20334;-81
2023/12/16 10:30:30;;;;;;;25.52;10.50;;;;;;;;;;4835865;29;20050;-81
2023/12/16 10:32:56;;;;;;;30.70;10.65;;;;;;;;;;4837522;29;20851;-81
2023/12/16 10:35:23;;;;;;;34.83;10.65;;;;;;;;;;4838104;29;20066;-80
2023/12/16 10:37:50;;;;;;;35.92;11.13;;;;;;;;;;4836982;29;20194;-82
2023/12/16 10:40:16;;;;;;;27.05;10.43;;;;;;;;;;4836608;29;20872;-81
2023/12/16 10:42:43;;;;;;;38.45;10.93;;;;;;;;;;4836571;29;20149;-80
2023/12/16 10:45:12;;;;;;;30.63;13.00;;;;;;;;;;4836644;29;20056;-80
2023/12/16 10:47:38;;;;;;;34.70;12.10;;;;;;;;;;4819600;29;20046;-80
2023/12/16 10:50:06;;;;;;;29.30;12.05;;;;;;;;;;4818855;29;20050;-81
2023/12/16 10:52:35;;;;;;;30.95;11.82;;;;;;;;;;4819659;29;20094;-81
2023/12/16 10:55:03;;;;;;;26.83;10.95;;;;;;;;;;4818182;29;20054;-80
2023/12/16 10:57:32;;;;;;;33.42;11.10;;;;;;;;;;4818099;29;20141;-81
2023/12/16 10:59:58;;;;;;;27.23;11.85;;;;;;;;;;4826207;29;20358;-81
2023/12/16 11:02:26;;;;;;;106.82;16.73;;;;;;;;;;4827640;29;20151;-81
2023/12/16 11:04:57;;;;;;;44.38;12.32;;;;;;;;;;4847842;29;20537;-80
2023/12/16 11:07:25;;;;;;;34.05;12.27;;;;;;;;;;4836848;29;20061;-80
2023/12/16 11:09:51;;;;;;;33.40;12.50;;;;;;;;;;4836946;29;20500;-80
2023/12/16 11:12:19;;;;;;;32.28;12.82;;;;;;;;;;4837601;29;20529;-80
2023/12/16 11:14:45;;;;;;;32.50;12.20;;;;;;;;;;4862304;29;20049;-80
2023/12/16 11:17:16;;;;;;;26.65;12.68;;;;;;;;;;4855829;29;20093;-81
2023/12/16 11:19:46;;;;;;;29.52;11.85;;;;;;;;;;4853239;29;20567;-80
2023/12/16 11:22:16;;;;;;;28.83;12.25;;;;;;;;;;4837797;29;20054;-80
2023/12/16 11:24:42;;;;;;;33.75;13.18;;;;;;;;;;4837271;29;20061;-80
2023/12/16 11:27:09;;;;;;;27.30;13.13;;;;;;;;;;4839630;29;20050;-80
2023/12/16 11:29:35;;;;;;;32.53;13.05;;;;;;;;;;4840127;29;20060;-80
2023/12/16 11:32:03;;;;;;;34.72;13.70;;;;;;;;;;4839862;29;20131;-80
2023/12/16 11:34:46;;;;;;;39.90;13.68;;;;;;;;;;4837068;29;20069;-81
2023/12/16 11:37:14;;;;;;;35.67;12.77;;;;;;;;;;4845220;29;20050;-81
2023/12/16 11:39:45;;;;;;;48.50;14.55;;;;;;;;;;4838937;29;20650;-78
2023/12/16 11:42:13;;;;;;;31.10;13.20;;;;;;;;;;4847129;29;20046;-78
2023/12/16 11:44:52;;;;;;;29.15;13.35;;;;;;;;;;4837272;29;20050;-78
2023/12/16 11:47:23;;;;;;;37.33;13.57;;;;;;;;;;4839268;29;20053;-78
2023/12/16 11:49:49;;;;;;;31.15;13.43;;;;;;;;;;4838999;29;20063;-79
2023/12/16 11:52:23;;;;;;;30.15;13.27;;;;;;;;;;4840906;29;20101;-81
2023/12/16 11:54:52;;;;;;;30.73;14.52;;;;;;;;;;4840614;29;20046;-79
2023/12/16 11:57:19;;;;;;;35.17;14.75;;;;;;;;;;4840823;29;20093;-79
2023/12/16 11:59:46;;;;;;;29.17;13.68;;;;;;;;;;4840760;29;20097;-79
2023/12/16 12:02:12;;;;;;;36.58;13.68;;;;;;;;;;4838883;29;20046;-79
2023/12/16 12:04:38;;;;;;;34.53;13.63;;;;;;;;;;4840484;29;20057;-79
2023/12/16 12:07:04;;;;;;;31.95;14.35;;;;;;;;;;4838466;29;20145;-79
2023/12/16 12:09:30;;;;;;;32.85;14.63;;;;;;;;;;4840802;29;20872;-80
2023/12/16 12:11:57;;;;;;;30.23;14.23;;;;;;;;;;4838671;29;20054;-79
2023/12/16 12:14:25;;;;;;;30.40;13.85;;;;;;;;;;4840777;29;20049;-79
2023/12/16 12:16:51;;;;;;;27.83;12.88;;;;;;;;;;4840262;29;20093;-80
2023/12/16 12:19:17;;;;;;;31.55;14.30;;;;;;;;;;4838350;29;20054;-79
2023/12/16 12:21:43;;;;;;;33.47;13.77;;;;;;;;;;4836971;29;20050;-80
2023/12/16 12:24:09;;;;;;;26.45;13.52;;;;;;;;;;4840565;29;20084;-79
2023/12/16 12:26:35;;;;;;;30.58;12.73;;;;;;;;;;4844171;29;20072;-79
2023/12/16 12:29:02;;;;;;;32.45;13.60;;;;;;;;;;4858900;29;20599;-78
2023/12/16 12:31:29;;;;;;;36.90;14.30;;;;;;;;;;4857531;29;20081;-79
2023/12/16 12:33:55;;;;;;;29.45;12.82;;;;;;;;;;4858141;29;20054;-79
2023/12/16 12:36:21;;;;;;;27.30;13.93;;;;;;;;;;4858416;29;20061;-79
2023/12/16 12:38:53;;;;;;;27.77;13.70;;;;;;;;;;4857366;29;20219;-79
2023/12/16 12:41:19;;;;;;;30.50;13.27;;;;;;;;;;4844006;29;20054;-79
2023/12/16 12:43:45;;;;;;;27.80;12.35;;;;;;;;;;4838242;29;20065;-79
2023/12/16 12:46:13;;;;;;;27.67;12.68;;;;;;;;;;4839369;29;20442;-80
2023/12/16 12:48:49;;;;;;;25.15;13.07;;;7.80;99.90;;;;;;4839697;29;20061;-81
2023/12/16 12:51:14;;;;;;;26.70;12.65;;;7.80;99.90;;;;;;4838323;29;20124;-81
2023/12/16 12:53:40;;;;;;;25.92;11.90;;;7.80;99.90;;;;;;4837221;29;20049;-80
2023/12/16 12:56:07;;;;;;;27.10;13.70;;;7.80;99.90;;;;;;4830133;29;20049;-81
2023/12/16 12:58:34;;;;;;;25.42;12.43;;;7.80;99.90;;;;;;4835711;29;20046;-81
2023/12/16 13:01:02;;;;;;;23.75;12.38;;;7.80;99.90;;;;;;4832608;29;20035;-81
2023/12/16 13:03:29;;;;;;;29.40;12.13;;;7.80;99.90;;;;;;4820984;29;20050;-79
2023/12/16 13:05:54;;;;;;;23.80;12.75;;;7.80;99.90;;;;;;4820809;29;20098;-81
2023/12/16 13:08:20;;;;;;;28.85;12.32;;;7.80;99.90;;;;;;4820438;29;20046;-82
2023/12/16 13:10:48;;;;;;;23.13;11.70;;;7.80;99.90;;;;;;4849094;29;20053;-82
2023/12/16 13:13:14;;;;;;;23.25;11.82;;;7.90;99.90;;;;;;4839011;29;20087;-82
2023/12/16 13:15:39;;;;;;;27.23;12.38;;;7.90;99.90;;;;;;4830019;29;20050;-81
2023/12/16 13:18:08;;;;;;;24.08;11.93;;;7.90;99.90;;;;;;4818527;29;20422;-82
2023/12/16 13:20:34;;;;;;;25.13;12.30;;;7.90;99.90;;;;;;4818386;29;20574;-82
2023/12/16 13:23:00;;;;;;;21.88;11.68;;;7.90;99.90;;;;;;4825549;29;20056;-82
2023/12/16 13:25:25;;;;;;;24.65;12.27;;;8.00;99.90;;;;;;4836491;29;20125;-82
2023/12/16 13:27:51;;;;;;;20.75;10.48;;;8.00;99.90;;;;;;4836628;29;20045;-83
2023/12/16 13:30:18;;;;;;;22.42;11.25;;;8.10;99.90;;;;;;4836888;29;20042;-83
2023/12/16 13:32:44;;;;;;;22.73;10.77;;;8.10;99.90;;;;;;4839354;29;20070;-82
2023/12/16 13:35:09;;;;;;;20.48;9.40;;;8.10;99.90;;;;;;4837693;29;20505;-82
2023/12/16 13:37:35;;;;;;;17.08;9.32;;;8.10;99.90;;;;;;4837784;29;20069;-82
2023/12/16 13:40:05;;;;;;;16.50;8.13;;;8.20;99.90;;;;;;4837075;29;20523;-81
2023/12/16 13:42:31;;;;;;;13.30;7.07;;;8.20;99.90;;;;;;4837843;29;20058;-83
2023/12/16 13:44:56;;;;;;;13.00;6.50;;;8.30;99.90;;;;;;4838795;29;20094;-82
2023/12/16 13:47:22;;;;;;;10.60;6.25;;;;;;;;;;4838491;29;20050;-83
2023/12/16 13:49:48;;;;;;;12.48;6.93;;;;;;;;;;4836749;29;20138;-82
2023/12/16 13:52:15;;;;;;;10.38;6.80;;;;;;;;;;4838427;29;20140;-82
2023/12/16 13:54:41;;;;;;;14.43;6.93;;;;;;;;;;4837413;29;20054;-81
2023/12/16 13:57:08;;;;;;;15.90;6.57;;;;;;;;;;4838888;29;20060;-81
2023/12/16 13:59:34;;;;;;;14.75;6.70;;;;;;;;;;4838751;29;20525;-81
2023/12/16 14:02:01;;;;;;;16.83;7.05;;;;;;;;;;4837807;29;20114;-81
2023/12/16 14:04:27;;;;;;;14.95;6.88;;;;;;;;;;4834956;29;20045;-81
2023/12/16 14:06:53;;;;;;;17.90;6.72;;;;;;;;;;4836304;29;20472;-82
2023/12/16 14:09:19;;;;;;;13.60;6.55;;;;;;;;;;4823491;29;20166;-82
2023/12/16 14:11:46;;;;;;;16.27;7.43;;;;;;;;;;4821630;29;20092;-82
2023/12/16 14:14:12;;;;;;;14.10;6.97;;;;;;;;;;4824693;29;20054;-83
2023/12/16 14:16:38;;;;;;;14.00;7.80;;;;;;;;;;4819863;29;20471;-82